sensor_id;sensor_type;location;lat;lon;timestamp;temperature;humidity
25811;DHT22;13645;52.460;13.910;2022-07-24T00:02:19;14.40;99.90
25811;DHT22;13645;52.460;13.910;2022-07-24T00:04:51;14.30;99.90
25811;DHT22;13645;52.460;13.910;2022-07-24T00:07:23;14.30;99.90
25811;DHT22;13645;52.460;13.910;2022-07-24T00:09:49;14.20;99.90
25811;DHT22;13645;52.460;13.910;2022-07-24T00:12:16;14.20;99.90
25811;DHT22;13645;52.460;13.910;2022-07-24T00:14:43;14.20;99.90
25811;DHT22;13645;52.460;13.910;2022-07-24T00:17:09;14.20;99.90
25811;DHT22;13645;52.460;13.910;2022-07-24T00:19:36;14.20;99.90
25811;DHT22;13645;52.460;13.910;2022-07-24T00:22:03;14.20;99.90
25811;DHT22;13645;52.460;13.910;2022-07-24T00:24:30;14.10;99.90
25811;DHT22;13645;52.460;13.910;2022-07-24T00:26:57;14.10;99.90
25811;DHT22;13645;52.460;13.910;2022-07-24T00:29:23;14.00;99.90
25811;DHT22;13645;52.460;13.910;2022-07-24T00:31:50;14.00;99.90
25811;DHT22;13645;52.460;13.910;2022-07-24T00:34:17;14.00;99.90
25811;DHT22;13645;52.460;13.910;2022-07-24T00:36:44;13.90;99.90
25811;DHT22;13645;52.460;13.910;2022-07-24T00:39:11;13.90;99.90
25811;DHT22;13645;52.460;13.910;2022-07-24T00:41:37;13.90;99.90
25811;DHT22;13645;52.460;13.910;2022-07-24T00:44:10;13.90;99.90
25811;DHT22;13645;52.460;13.910;2022-07-24T00:46:39;13.80;99.90
25811;DHT22;13645;52.460;13.910;2022-07-24T00:49:09;13.80;99.90
25811;DHT22;13645;52.460;13.910;2022-07-24T00:51:50;13.80;99.90
25811;DHT22;13645;52.460;13.910;2022-07-24T00:54:18;13.80;99.90
25811;DHT22;13645;52.460;13.910;2022-07-24T00:56:47;13.80;99.90
25811;DHT22;13645;52.460;13.910;2022-07-24T00:59:14;13.80;99.90
25811;DHT22;13645;52.460;13.910;2022-07-24T01:01:40;13.70;99.90
25811;DHT22;13645;52.460;13.910;2022-07-24T01:04:08;13.70;99.90
25811;DHT22;13645;52.460;13.910;2022-07-24T01:06:44;13.70;99.90
25811;DHT22;13645;52.460;13.910;2022-07-24T01:09:12;13.60;99.90
25811;DHT22;13645;52.460;13.910;2022-07-24T01:11:39;13.60;99.90
25811;DHT22;13645;52.460;13.910;2022-07-24T01:14:07;13.60;99.90
25811;DHT22;13645;52.460;13.910;2022-07-24T01:16:35;13.60;99.90
25811;DHT22;13645;52.460;13.910;2022-07-24T01:19:03;13.50;99.90
25811;DHT22;13645;52.460;13.910;2022-07-24T01:21:30;13.50;99.90
25811;DHT22;13645;52.460;13.910;2022-07-24T01:23:57;13.50;99.90
25811;DHT22;13645;52.460;13.910;2022-07-24T01:26:24;13.40;99.90
25811;DHT22;13645;52.460;13.910;2022-07-24T01:28:51;13.40;99.90
25811;DHT22;13645;52.460;13.910;2022-07-24T01:31:17;13.40;99.90
25811;DHT22;13645;52.460;13.910;2022-07-24T01:33:44;13.40;99.90
25811;DHT22;13645;52.460;13.910;2022-07-24T01:36:11;13.30;99.90
25811;DHT22;13645;52.460;13.910;2022-07-24T01:38:37;13.20;99.90
25811;DHT22;13645;52.460;13.910;2022-07-24T01:41:04;13.30;99.90
25811;DHT22;13645;52.460;13.910;2022-07-24T01:43:31;13.20;99.90
25811;DHT22;13645;52.460;13.910;2022-07-24T01:45:58;13.20;99.90
25811;DHT22;13645;52.460;13.910;2022-07-24T01:48:25;13.10;99.90
25811;DHT22;13645;52.460;13.910;2022-07-24T01:50:51;13.10;99.90
25811;DHT22;13645;52.460;13.910;2022-07-24T01:53:18;13.10;99.90
25811;DHT22;13645;52.460;13.910;2022-07-24T01:55:45;13.00;99.90
25811;DHT22;13645;52.460;13.910;2022-07-24T01:58:12;13.00;99.90
25811;DHT22;13645;52.460;13.910;2022-07-24T02:00:38;13.00;99.90
25811;DHT22;13645;52.460;13.910;2022-07-24T02:03:08;12.90;99.90
25811;DHT22;13645;52.460;13.910;2022-07-24T02:05:34;12.90;99.90
25811;DHT22;13645;52.460;13.910;2022-07-24T02:08:01;12.80;99.90
25811;DHT22;13645;52.460;13.910;2022-07-24T02:10:30;12.80;99.90
25811;DHT22;13645;52.460;13.910;2022-07-24T02:12:57;12.70;99.90
25811;DHT22;13645;52.460;13.910;2022-07-24T02:15:26;12.70;99.90
25811;DHT22;13645;52.460;13.910;2022-07-24T02:17:55;12.70;99.90
25811;DHT22;13645;52.460;13.910;2022-07-24T02:20:23;12.70;99.90
25811;DHT22;13645;52.460;13.910;2022-07-24T02:22:49;12.60;99.90
25811;DHT22;13645;52.460;13.910;2022-07-24T02:25:16;12.50;99.90
25811;DHT22;13645;52.460;13.910;2022-07-24T02:27:43;12.50;99.90
25811;DHT22;13645;52.460;13.910;2022-07-24T02:30:16;12.50;99.90
25811;DHT22;13645;52.460;13.910;2022-07-24T02:32:43;12.50;99.90
25811;DHT22;13645;52.460;13.910;2022-07-24T02:35:10;12.50;99.90
25811;DHT22;13645;52.460;13.910;2022-07-24T02:37:42;12.40;99.90
25811;DHT22;13645;52.460;13.910;2022-07-24T02:40:10;12.40;99.90
25811;DHT22;13645;52.460;13.910;2022-07-24T02:42:38;12.30;99.90
25811;DHT22;13645;52.460;13.910;2022-07-24T02:45:06;12.30;99.90
25811;DHT22;13645;52.460;13.910;2022-07-24T02:47:33;12.30;99.90
25811;DHT22;13645;52.460;13.910;2022-07-24T02:50:00;12.20;99.90
25811;DHT22;13645;52.460;13.910;2022-07-24T02:52:27;12.20;99.90
25811;DHT22;13645;52.460;13.910;2022-07-24T02:54:54;12.20;99.90
25811;DHT22;13645;52.460;13.910;2022-07-24T02:57:21;12.10;99.90
25811;DHT22;13645;52.460;13.910;2022-07-24T02:59:47;12.20;99.90
25811;DHT22;13645;52.460;13.910;2022-07-24T03:02:18;12.10;99.90
25811;DHT22;13645;52.460;13.910;2022-07-24T03:04:46;12.10;99.90
25811;DHT22;13645;52.460;13.910;2022-07-24T03:07:13;12.00;99.90
25811;DHT22;13645;52.460;13.910;2022-07-24T03:09:39;11.90;99.90
25811;DHT22;13645;52.460;13.910;2022-07-24T03:12:06;11.90;99.90
25811;DHT22;13645;52.460;13.910;2022-07-24T03:14:33;11.90;99.90
25811;DHT22;13645;52.460;13.910;2022-07-24T03:17:00;11.80;99.90
25811;DHT22;13645;52.460;13.910;2022-07-24T03:19:27;11.80;99.90
25811;DHT22;13645;52.460;13.910;2022-07-24T03:21:54;11.80;99.90
25811;DHT22;13645;52.460;13.910;2022-07-24T03:24:21;11.80;99.90
25811;DHT22;13645;52.460;13.910;2022-07-24T03:26:48;11.80;99.90
25811;DHT22;13645;52.460;13.910;2022-07-24T03:29:15;11.80;99.90
25811;DHT22;13645;52.460;13.910;2022-07-24T03:31:41;11.80;99.90
25811;DHT22;13645;52.460;13.910;2022-07-24T03:34:09;11.80;99.90
25811;DHT22;13645;52.460;13.910;2022-07-24T03:36:36;11.80;99.90
25811;DHT22;13645;52.460;13.910;2022-07-24T03:39:04;11.80;99.90
25811;DHT22;13645;52.460;13.910;2022-07-24T03:41:32;11.90;99.90
25811;DHT22;13645;52.460;13.910;2022-07-24T03:43:58;11.90;99.90
25811;DHT22;13645;52.460;13.910;2022-07-24T03:46:25;11.90;99.90
25811;DHT22;13645;52.460;13.910;2022-07-24T03:48:55;11.80;99.90
25811;DHT22;13645;52.460;13.910;2022-07-24T03:51:21;11.90;99.90
25811;DHT22;13645;52.460;13.910;2022-07-24T03:53:49;11.80;99.90
25811;DHT22;13645;52.460;13.910;2022-07-24T03:56:17;11.80;99.90
25811;DHT22;13645;52.460;13.910;2022-07-24T03:58:44;11.80;99.90
25811;DHT22;13645;52.460;13.910;2022-07-24T04:01:11;11.90;99.90
25811;DHT22;13645;52.460;13.910;2022-07-24T04:03:38;11.90;99.90
25811;DHT22;13645;52.460;13.910;2022-07-24T04:06:05;12.00;99.90
25811;DHT22;13645;52.460;13.910;2022-07-24T04:08:33;12.00;99.90
25811;DHT22;13645;52.460;13.910;2022-07-24T04:11:00;12.00;99.90
25811;DHT22;13645;52.460;13.910;2022-07-24T04:13:28;12.00;99.90
25811;DHT22;13645;52.460;13.910;2022-07-24T04:15:56;12.00;99.90
25811;DHT22;13645;52.460;13.910;2022-07-24T04:18:24;12.00;99.90
25811;DHT22;13645;52.460;13.910;2022-07-24T04:20:51;12.10;99.90
25811;DHT22;13645;52.460;13.910;2022-07-24T04:23:17;12.20;99.90
25811;DHT22;13645;52.460;13.910;2022-07-24T04:25:45;12.20;99.90
25811;DHT22;13645;52.460;13.910;2022-07-24T04:28:12;12.30;99.90
25811;DHT22;13645;52.460;13.910;2022-07-24T04:30:39;12.30;99.90
25811;DHT22;13645;52.460;13.910;2022-07-24T04:33:06;12.40;99.90
25811;DHT22;13645;52.460;13.910;2022-07-24T04:35:33;12.40;99.90
25811;DHT22;13645;52.460;13.910;2022-07-24T04:38:00;12.50;99.90
25811;DHT22;13645;52.460;13.910;2022-07-24T04:40:27;12.60;99.90
25811;DHT22;13645;52.460;13.910;2022-07-24T04:42:53;12.70;99.90
25811;DHT22;13645;52.460;13.910;2022-07-24T04:45:21;12.80;99.90
25811;DHT22;13645;52.460;13.910;2022-07-24T04:47:47;12.90;99.90
25811;DHT22;13645;52.460;13.910;2022-07-24T04:50:14;13.00;99.90
25811;DHT22;13645;52.460;13.910;2022-07-24T04:52:41;13.10;99.90
25811;DHT22;13645;52.460;13.910;2022-07-24T04:55:09;13.30;99.90
25811;DHT22;13645;52.460;13.910;2022-07-24T04:57:36;13.40;99.90
25811;DHT22;13645;52.460;13.910;2022-07-24T05:00:05;13.60;99.90
25811;DHT22;13645;52.460;13.910;2022-07-24T05:02:33;13.60;99.90
25811;DHT22;13645;52.460;13.910;2022-07-24T05:04:59;13.80;99.90
25811;DHT22;13645;52.460;13.910;2022-07-24T05:07:26;13.80;99.90
25811;DHT22;13645;52.460;13.910;2022-07-24T05:09:56;13.90;99.90
25811;DHT22;13645;52.460;13.910;2022-07-24T05:12:24;14.00;99.90
25811;DHT22;13645;52.460;13.910;2022-07-24T05:14:51;14.10;99.90
25811;DHT22;13645;52.460;13.910;2022-07-24T05:17:18;14.20;99.90
25811;DHT22;13645;52.460;13.910;2022-07-24T05:19:45;14.30;99.90
25811;DHT22;13645;52.460;13.910;2022-07-24T05:22:12;14.50;99.90
25811;DHT22;13645;52.460;13.910;2022-07-24T05:24:39;14.50;99.90
25811;DHT22;13645;52.460;13.910;2022-07-24T05:27:05;14.70;99.90
25811;DHT22;13645;52.460;13.910;2022-07-24T05:29:38;14.80;99.90
25811;DHT22;13645;52.460;13.910;2022-07-24T05:32:07;14.90;99.90
25811;DHT22;13645;52.460;13.910;2022-07-24T05:34:35;15.10;99.90
25811;DHT22;13645;52.460;13.910;2022-07-24T05:37:07;15.20;99.90
25811;DHT22;13645;52.460;13.910;2022-07-24T05:39:33;15.30;99.90
25811;DHT22;13645;52.460;13.910;2022-07-24T05:42:00;15.60;99.90
25811;DHT22;13645;52.460;13.910;2022-07-24T05:44:27;15.60;99.90
25811;DHT22;13645;52.460;13.910;2022-07-24T05:46:54;15.80;99.90
25811;DHT22;13645;52.460;13.910;2022-07-24T05:49:21;15.90;99.90
25811;DHT22;13645;52.460;13.910;2022-07-24T05:51:47;16.00;99.90
25811;DHT22;13645;52.460;13.910;2022-07-24T05:54:14;16.10;99.90
25811;DHT22;13645;52.460;13.910;2022-07-24T05:56:41;16.10;99.90
25811;DHT22;13645;52.460;13.910;2022-07-24T05:59:08;16.20;99.90
25811;DHT22;13645;52.460;13.910;2022-07-24T06:01:35;16.30;99.90
25811;DHT22;13645;52.460;13.910;2022-07-24T06:04:02;16.40;99.90
25811;DHT22;13645;52.460;13.910;2022-07-24T06:06:29;16.50;99.90
25811;DHT22;13645;52.460;13.910;2022-07-24T06:08:56;16.60;99.90
25811;DHT22;13645;52.460;13.910;2022-07-24T06:11:23;16.70;99.90
25811;DHT22;13645;52.460;13.910;2022-07-24T06:13:50;16.80;99.90
25811;DHT22;13645;52.460;13.910;2022-07-24T06:16:20;17.00;99.90
25811;DHT22;13645;52.460;13.910;2022-07-24T06:18:47;17.20;99.90
25811;DHT22;13645;52.460;13.910;2022-07-24T06:21:15;17.20;99.90
25811;DHT22;13645;52.460;13.910;2022-07-24T06:23:42;17.30;99.90
25811;DHT22;13645;52.460;13.910;2022-07-24T06:26:09;17.50;99.90
25811;DHT22;13645;52.460;13.910;2022-07-24T06:28:36;17.60;99.90
25811;DHT22;13645;52.460;13.910;2022-07-24T06:31:03;17.80;99.90
25811;DHT22;13645;52.460;13.910;2022-07-24T06:33:31;18.00;99.90
25811;DHT22;13645;52.460;13.910;2022-07-24T06:35:59;18.20;99.90
25811;DHT22;13645;52.460;13.910;2022-07-24T06:38:25;18.10;99.90
25811;DHT22;13645;52.460;13.910;2022-07-24T06:40:52;18.40;99.90
25811;DHT22;13645;52.460;13.910;2022-07-24T06:43:19;18.60;99.90
25811;DHT22;13645;52.460;13.910;2022-07-24T06:45:46;18.60;99.90
25811;DHT22;13645;52.460;13.910;2022-07-24T06:48:15;18.60;99.90
25811;DHT22;13645;52.460;13.910;2022-07-24T06:50:42;18.80;99.90
25811;DHT22;13645;52.460;13.910;2022-07-24T06:53:21;19.00;99.90
25811;DHT22;13645;52.460;13.910;2022-07-24T06:55:48;19.40;99.90
25811;DHT22;13645;52.460;13.910;2022-07-24T06:58:19;19.60;99.90
25811;DHT22;13645;52.460;13.910;2022-07-24T07:00:47;19.90;99.90
25811;DHT22;13645;52.460;13.910;2022-07-24T07:03:14;20.20;99.90
25811;DHT22;13645;52.460;13.910;2022-07-24T07:05:41;20.30;99.90
25811;DHT22;13645;52.460;13.910;2022-07-24T07:08:08;20.50;99.90
25811;DHT22;13645;52.460;13.910;2022-07-24T07:10:35;20.80;99.90
25811;DHT22;13645;52.460;13.910;2022-07-24T07:13:01;20.70;99.90
25811;DHT22;13645;52.460;13.910;2022-07-24T07:15:28;21.00;99.90
25811;DHT22;13645;52.460;13.910;2022-07-24T07:17:55;21.30;99.90
25811;DHT22;13645;52.460;13.910;2022-07-24T07:20:21;21.60;99.90
25811;DHT22;13645;52.460;13.910;2022-07-24T07:22:48;21.80;99.90
25811;DHT22;13645;52.460;13.910;2022-07-24T07:25:18;21.80;99.90
25811;DHT22;13645;52.460;13.910;2022-07-24T07:27:44;22.10;99.90
25811;DHT22;13645;52.460;13.910;2022-07-24T07:30:11;22.50;99.90
25811;DHT22;13645;52.460;13.910;2022-07-24T07:32:39;22.20;99.90
25811;DHT22;13645;52.460;13.910;2022-07-24T07:35:06;22.00;99.90
25811;DHT22;13645;52.460;13.910;2022-07-24T07:37:47;21.90;99.90
25811;DHT22;13645;52.460;13.910;2022-07-24T07:40:14;22.30;99.90
25811;DHT22;13645;52.460;13.910;2022-07-24T07:42:41;22.40;99.90
25811;DHT22;13645;52.460;13.910;2022-07-24T07:45:08;22.80;99.90
25811;DHT22;13645;52.460;13.910;2022-07-24T07:47:36;23.30;99.90
25811;DHT22;13645;52.460;13.910;2022-07-24T07:50:04;23.50;99.90
25811;DHT22;13645;52.460;13.910;2022-07-24T07:52:31;23.90;99.90
25811;DHT22;13645;52.460;13.910;2022-07-24T07:54:58;24.00;99.90
25811;DHT22;13645;52.460;13.910;2022-07-24T07:57:25;24.10;99.90
25811;DHT22;13645;52.460;13.910;2022-07-24T08:00:13;23.70;99.90
25811;DHT22;13645;52.460;13.910;2022-07-24T08:02:39;23.80;99.90
25811;DHT22;13645;52.460;13.910;2022-07-24T08:05:07;23.90;99.90
25811;DHT22;13645;52.460;13.910;2022-07-24T08:07:34;24.10;99.90
25811;DHT22;13645;52.460;13.910;2022-07-24T08:10:01;24.50;99.90
25811;DHT22;13645;52.460;13.910;2022-07-24T08:12:28;24.70;99.90
25811;DHT22;13645;52.460;13.910;2022-07-24T08:14:54;24.60;99.90
25811;DHT22;13645;52.460;13.910;2022-07-24T08:17:22;24.80;99.90
25811;DHT22;13645;52.460;13.910;2022-07-24T08:19:49;25.20;99.50
25811;DHT22;13645;52.460;13.910;2022-07-24T08:22:15;25.50;99.00
25811;DHT22;13645;52.460;13.910;2022-07-24T08:24:42;25.60;96.30
25811;DHT22;13645;52.460;13.910;2022-07-24T08:27:09;26.00;97.50
25811;DHT22;13645;52.460;13.910;2022-07-24T08:29:35;25.90;96.30
25811;DHT22;13645;52.460;13.910;2022-07-24T08:32:02;25.50;95.40
25811;DHT22;13645;52.460;13.910;2022-07-24T08:34:29;25.50;96.80
25811;DHT22;13645;52.460;13.910;2022-07-24T08:36:56;25.50;95.40
25811;DHT22;13645;52.460;13.910;2022-07-24T08:39:23;26.00;93.60
25811;DHT22;13645;52.460;13.910;2022-07-24T08:41:51;26.00;93.20
25811;DHT22;13645;52.460;13.910;2022-07-24T08:44:18;26.10;92.40
25811;DHT22;13645;52.460;13.910;2022-07-24T08:46:45;26.10;92.70
25811;DHT22;13645;52.460;13.910;2022-07-24T08:49:13;26.60;91.80
25811;DHT22;13645;52.460;13.910;2022-07-24T08:51:43;26.90;90.40
25811;DHT22;13645;52.460;13.910;2022-07-24T08:54:11;27.00;88.10
25811;DHT22;13645;52.460;13.910;2022-07-24T08:56:39;26.90;89.90
25811;DHT22;13645;52.460;13.910;2022-07-24T08:59:19;26.80;87.00
25811;DHT22;13645;52.460;13.910;2022-07-24T09:01:51;26.60;86.00
25811;DHT22;13645;52.460;13.910;2022-07-24T09:05:00;26.90;83.30
25811;DHT22;13645;52.460;13.910;2022-07-24T09:07:29;27.50;85.30
25811;DHT22;13645;52.460;13.910;2022-07-24T09:10:07;28.00;81.50
25811;DHT22;13645;52.460;13.910;2022-07-24T09:12:36;28.20;81.20
25811;DHT22;13645;52.460;13.910;2022-07-24T09:15:16;28.20;80.60
25811;DHT22;13645;52.460;13.910;2022-07-24T09:17:48;28.40;79.30
25811;DHT22;13645;52.460;13.910;2022-07-24T09:20:15;28.10;79.50
25811;DHT22;13645;52.460;13.910;2022-07-24T09:22:42;28.40;78.30
25811;DHT22;13645;52.460;13.910;2022-07-24T09:25:22;28.80;77.10
25811;DHT22;13645;52.460;13.910;2022-07-24T09:27:58;28.80;76.00
25811;DHT22;13645;52.460;13.910;2022-07-24T09:30:42;28.80;72.40
25811;DHT22;13645;52.460;13.910;2022-07-24T09:35:51;29.00;73.30
25811;DHT22;13645;52.460;13.910;2022-07-24T09:38:24;29.30;69.20
25811;DHT22;13645;52.460;13.910;2022-07-24T09:40:56;29.30;67.10
25811;DHT22;13645;52.460;13.910;2022-07-24T09:43:31;29.30;69.00
25811;DHT22;13645;52.460;13.910;2022-07-24T09:46:08;29.30;70.20
25811;DHT22;13645;52.460;13.910;2022-07-24T09:48:38;29.60;67.60
25811;DHT22;13645;52.460;13.910;2022-07-24T09:51:14;29.90;65.70
25811;DHT22;13645;52.460;13.910;2022-07-24T09:53:42;29.90;66.60
25811;DHT22;13645;52.460;13.910;2022-07-24T09:56:12;30.00;66.90
25811;DHT22;13645;52.460;13.910;2022-07-24T10:01:18;30.20;61.60
25811;DHT22;13645;52.460;13.910;2022-07-24T10:03:49;30.10;62.90
25811;DHT22;13645;52.460;13.910;2022-07-24T10:06:21;29.00;63.50
25811;DHT22;13645;52.460;13.910;2022-07-24T10:08:49;29.00;65.20
25811;DHT22;13645;52.460;13.910;2022-07-24T10:11:20;29.40;62.70
25811;DHT22;13645;52.460;13.910;2022-07-24T10:13:48;29.30;62.60
25811;DHT22;13645;52.460;13.910;2022-07-24T10:16:25;29.40;62.60
25811;DHT22;13645;52.460;13.910;2022-07-24T10:19:00;29.70;62.30
25811;DHT22;13645;52.460;13.910;2022-07-24T10:21:33;29.40;60.30
25811;DHT22;13645;52.460;13.910;2022-07-24T10:26:46;29.10;61.40
25811;DHT22;13645;52.460;13.910;2022-07-24T10:29:19;29.60;61.50
25811;DHT22;13645;52.460;13.910;2022-07-24T10:31:48;29.60;59.40
25811;DHT22;13645;52.460;13.910;2022-07-24T10:42:28;29.60;60.60
25811;DHT22;13645;52.460;13.910;2022-07-24T10:45:18;30.50;59.40
25811;DHT22;13645;52.460;13.910;2022-07-24T10:47:46;30.70;58.30
25811;DHT22;13645;52.460;13.910;2022-07-24T10:50:13;30.30;58.50
25811;DHT22;13645;52.460;13.910;2022-07-24T10:52:43;29.80;58.70
25811;DHT22;13645;52.460;13.910;2022-07-24T10:55:28;30.50;57.60
25811;DHT22;13645;52.460;13.910;2022-07-24T10:58:11;30.90;58.90
25811;DHT22;13645;52.460;13.910;2022-07-24T11:00:43;31.60;55.70
25811;DHT22;13645;52.460;13.910;2022-07-24T11:03:24;31.60;54.90
25811;DHT22;13645;52.460;13.910;2022-07-24T11:06:37;31.70;55.70
25811;DHT22;13645;52.460;13.910;2022-07-24T11:09:04;31.80;54.40
25811;DHT22;13645;52.460;13.910;2022-07-24T11:11:32;31.70;52.90
25811;DHT22;13645;52.460;13.910;2022-07-24T11:13:59;32.00;52.50
25811;DHT22;13645;52.460;13.910;2022-07-24T11:16:30;32.00;54.60
25811;DHT22;13645;52.460;13.910;2022-07-24T11:21:32;32.30;54.00
25811;DHT22;13645;52.460;13.910;2022-07-24T11:26:57;32.00;52.80
25811;DHT22;13645;52.460;13.910;2022-07-24T11:29:33;32.40;50.80
25811;DHT22;13645;52.460;13.910;2022-07-24T11:32:15;32.30;50.20
25811;DHT22;13645;52.460;13.910;2022-07-24T11:34:50;32.70;50.00
25811;DHT22;13645;52.460;13.910;2022-07-24T11:37:17;32.50;51.50
25811;DHT22;13645;52.460;13.910;2022-07-24T11:39:45;32.70;51.10
25811;DHT22;13645;52.460;13.910;2022-07-24T11:42:16;32.20;51.60
25811;DHT22;13645;52.460;13.910;2022-07-24T11:44:48;31.00;51.80
25811;DHT22;13645;52.460;13.910;2022-07-24T11:47:18;31.40;52.90
25811;DHT22;13645;52.460;13.910;2022-07-24T11:49:50;30.60;52.50
25811;DHT22;13645;52.460;13.910;2022-07-24T11:52:20;31.40;52.70
25811;DHT22;13645;52.460;13.910;2022-07-24T11:54:51;31.40;54.20
25811;DHT22;13645;52.460;13.910;2022-07-24T12:00:09;32.30;50.50
25811;DHT22;13645;52.460;13.910;2022-07-24T12:02:50;32.60;49.30
25811;DHT22;13645;52.460;13.910;2022-07-24T12:05:33;32.80;49.30
25811;DHT22;13645;52.460;13.910;2022-07-24T12:08:02;32.10;50.20
25811;DHT22;13645;52.460;13.910;2022-07-24T12:10:30;32.40;49.80
25811;DHT22;13645;52.460;13.910;2022-07-24T12:12:57;32.60;51.60
25811;DHT22;13645;52.460;13.910;2022-07-24T12:15:26;32.60;50.20
25811;DHT22;13645;52.460;13.910;2022-07-24T12:18:06;32.70;49.10
25811;DHT22;13645;52.460;13.910;2022-07-24T12:20:33;32.40;49.00
25811;DHT22;13645;52.460;13.910;2022-07-24T12:23:03;32.20;50.70
25811;DHT22;13645;52.460;13.910;2022-07-24T12:25:31;32.70;49.90
25811;DHT22;13645;52.460;13.910;2022-07-24T12:30:37;33.00;49.00
25811;DHT22;13645;52.460;13.910;2022-07-24T12:43:27;33.70;45.70
25811;DHT22;13645;52.460;13.910;2022-07-24T12:46:09;33.60;46.10
25811;DHT22;13645;52.460;13.910;2022-07-24T12:48:36;33.10;47.60
25811;DHT22;13645;52.460;13.910;2022-07-24T12:53:34;32.90;48.30
25811;DHT22;13645;52.460;13.910;2022-07-24T12:56:14;32.90;45.30
25811;DHT22;13645;52.460;13.910;2022-07-24T12:58:57;32.70;48.20
25811;DHT22;13645;52.460;13.910;2022-07-24T13:01:43;32.60;48.60
25811;DHT22;13645;52.460;13.910;2022-07-24T13:04:10;32.60;47.70
25811;DHT22;13645;52.460;13.910;2022-07-24T13:06:43;32.80;46.80
25811;DHT22;13645;52.460;13.910;2022-07-24T13:09:12;32.90;46.30
25811;DHT22;13645;52.460;13.910;2022-07-24T13:11:40;32.70;46.50
25811;DHT22;13645;52.460;13.910;2022-07-24T13:14:08;32.90;46.10
25811;DHT22;13645;52.460;13.910;2022-07-24T13:16:42;32.90;47.20
25811;DHT22;13645;52.460;13.910;2022-07-24T13:19:09;32.70;47.20
25811;DHT22;13645;52.460;13.910;2022-07-24T13:21:37;32.70;47.10
25811;DHT22;13645;52.460;13.910;2022-07-24T13:24:06;33.20;45.60
25811;DHT22;13645;52.460;13.910;2022-07-24T13:26:34;33.60;45.50
25811;DHT22;13645;52.460;13.910;2022-07-24T13:29:02;33.40;45.40
25811;DHT22;13645;52.460;13.910;2022-07-24T13:31:31;33.40;45.30
25811;DHT22;13645;52.460;13.910;2022-07-24T13:33:58;33.10;45.80
25811;DHT22;13645;52.460;13.910;2022-07-24T13:36:25;32.70;46.60
25811;DHT22;13645;52.460;13.910;2022-07-24T13:38:53;32.50;48.00
25811;DHT22;13645;52.460;13.910;2022-07-24T13:41:21;32.60;46.40
25811;DHT22;13645;52.460;13.910;2022-07-24T13:43:49;32.70;48.00
25811;DHT22;13645;52.460;13.910;2022-07-24T13:46:16;33.00;47.30
25811;DHT22;13645;52.460;13.910;2022-07-24T13:48:47;33.40;44.90
25811;DHT22;13645;52.460;13.910;2022-07-24T13:51:19;33.10;46.40
25811;DHT22;13645;52.460;13.910;2022-07-24T13:53:46;32.70;45.70
25811;DHT22;13645;52.460;13.910;2022-07-24T13:56:13;32.70;46.10
25811;DHT22;13645;52.460;13.910;2022-07-24T13:58:40;32.20;45.60
25811;DHT22;13645;52.460;13.910;2022-07-24T14:01:08;32.30;46.70
25811;DHT22;13645;52.460;13.910;2022-07-24T14:03:36;32.20;46.80
25811;DHT22;13645;52.460;13.910;2022-07-24T14:06:27;32.10;48.10
25811;DHT22;13645;52.460;13.910;2022-07-24T14:08:56;32.40;47.10
25811;DHT22;13645;52.460;13.910;2022-07-24T14:11:23;32.50;46.10
25811;DHT22;13645;52.460;13.910;2022-07-24T14:13:50;32.40;47.00
25811;DHT22;13645;52.460;13.910;2022-07-24T14:16:17;32.40;48.20
25811;DHT22;13645;52.460;13.910;2022-07-24T14:18:44;31.90;45.60
25811;DHT22;13645;52.460;13.910;2022-07-24T14:21:11;32.10;45.90
25811;DHT22;13645;52.460;13.910;2022-07-24T14:23:38;32.40;44.80
25811;DHT22;13645;52.460;13.910;2022-07-24T14:26:04;31.90;46.10
25811;DHT22;13645;52.460;13.910;2022-07-24T14:28:32;32.10;46.00
25811;DHT22;13645;52.460;13.910;2022-07-24T14:30:59;32.10;46.30
25811;DHT22;13645;52.460;13.910;2022-07-24T14:33:26;31.80;47.30
25811;DHT22;13645;52.460;13.910;2022-07-24T14:35:53;32.10;45.60
25811;DHT22;13645;52.460;13.910;2022-07-24T14:38:19;31.80;47.50
25811;DHT22;13645;52.460;13.910;2022-07-24T14:40:46;32.10;46.20
25811;DHT22;13645;52.460;13.910;2022-07-24T14:43:13;32.30;46.90
25811;DHT22;13645;52.460;13.910;2022-07-24T14:45:39;32.60;44.90
25811;DHT22;13645;52.460;13.910;2022-07-24T14:48:06;32.60;45.40
25811;DHT22;13645;52.460;13.910;2022-07-24T14:50:33;32.40;45.90
25811;DHT22;13645;52.460;13.910;2022-07-24T14:52:59;32.30;45.10
25811;DHT22;13645;52.460;13.910;2022-07-24T14:55:26;32.40;45.80
25811;DHT22;13645;52.460;13.910;2022-07-24T14:57:53;32.30;44.70
25811;DHT22;13645;52.460;13.910;2022-07-24T15:00:19;31.60;44.50
25811;DHT22;13645;52.460;13.910;2022-07-24T15:02:46;31.60;44.90
25811;DHT22;13645;52.460;13.910;2022-07-24T15:05:13;31.50;45.00
25811;DHT22;13645;52.460;13.910;2022-07-24T15:07:44;31.10;46.90
25811;DHT22;13645;52.460;13.910;2022-07-24T15:10:11;31.40;46.20
25811;DHT22;13645;52.460;13.910;2022-07-24T15:12:38;31.60;46.10
25811;DHT22;13645;52.460;13.910;2022-07-24T15:15:05;31.70;45.60
25811;DHT22;13645;52.460;13.910;2022-07-24T15:17:32;31.70;43.80
25811;DHT22;13645;52.460;13.910;2022-07-24T15:19:59;31.90;46.60
25811;DHT22;13645;52.460;13.910;2022-07-24T15:22:26;32.10;47.00
25811;DHT22;13645;52.460;13.910;2022-07-24T15:24:52;32.10;46.10
25811;DHT22;13645;52.460;13.910;2022-07-24T15:27:19;32.10;45.10
25811;DHT22;13645;52.460;13.910;2022-07-24T15:29:46;32.00;45.50
25811;DHT22;13645;52.460;13.910;2022-07-24T15:32:12;31.90;44.60
25811;DHT22;13645;52.460;13.910;2022-07-24T15:34:39;31.70;44.80
25811;DHT22;13645;52.460;13.910;2022-07-24T15:37:06;31.50;45.90
25811;DHT22;13645;52.460;13.910;2022-07-24T15:39:33;31.40;46.50
25811;DHT22;13645;52.460;13.910;2022-07-24T15:41:59;31.40;46.60
25811;DHT22;13645;52.460;13.910;2022-07-24T15:44:26;31.40;46.10
25811;DHT22;13645;52.460;13.910;2022-07-24T15:46:53;31.10;47.40
25811;DHT22;13645;52.460;13.910;2022-07-24T15:49:20;30.90;47.90
25811;DHT22;13645;52.460;13.910;2022-07-24T15:51:47;30.90;46.20
25811;DHT22;13645;52.460;13.910;2022-07-24T15:54:13;30.90;46.40
25811;DHT22;13645;52.460;13.910;2022-07-24T15:56:40;30.70;47.40
25811;DHT22;13645;52.460;13.910;2022-07-24T15:59:07;30.30;48.60
25811;DHT22;13645;52.460;13.910;2022-07-24T16:01:34;30.20;47.70
25811;DHT22;13645;52.460;13.910;2022-07-24T16:04:13;30.20;48.00
25811;DHT22;13645;52.460;13.910;2022-07-24T16:06:40;30.20;49.10